Chickasaw, Iowa
Current Conditions -  °F | °C
As of 7:55 PM on Monday 24 Nov 2014 (Local Time) from KCCY Reporting Station
Light Snow Light Snow  
Wind Chill: -1°   Ceiling: 500
Heat Index: 16°   Visibility: 1.2mi
Dew Point: 10°   Wind: 20mph
Humidity: 79%   Direction: 310°NW
Pressure: 29.79"   Gusts: 25mph
Location:  43.0386°N, 92.4951°W
Report Text: KCCY 250155Z AUTO 31017G22KT 1 1/4SM -SN BKN005 OVC012 M09/M12 A2979 RMK AO2
Loading
Personal Weather Stations






























Interactive Weather Map New forecast layout! Learn more

10-Day Weather Forecast

Advertisements
Track Severe Weather on mobile